createdAt,value
2018-06-19T00:02:17.193Z,46.70
2018-06-19T00:04:46.408Z,46.80
2018-06-19T00:07:15.466Z,46.70
2018-06-19T00:09:44.764Z,46.70
2018-06-19T00:12:14.145Z,46.70
2018-06-19T00:14:43.190Z,46.70
2018-06-19T00:17:12.349Z,46.70
2018-06-19T00:19:46.983Z,46.70
2018-06-19T00:22:16.237Z,46.70
2018-06-19T00:24:45.304Z,46.70
2018-06-19T00:27:14.466Z,46.70
2018-06-19T00:29:43.788Z,46.70
2018-06-19T00:32:13.061Z,46.70
2018-06-19T00:34:42.182Z,46.70
2018-06-19T00:37:11.316Z,46.70
2018-06-19T00:39:40.452Z,46.70
2018-06-19T00:42:09.711Z,46.70
2018-06-19T00:44:38.863Z,46.70
2018-06-19T00:47:08.080Z,46.60
2018-06-19T00:49:37.259Z,46.60
2018-06-19T00:52:06.407Z,46.70
2018-06-19T00:54:35.572Z,46.60
2018-06-19T00:57:04.765Z,46.60
2018-06-19T00:59:33.808Z,46.60
2018-06-19T01:02:02.979Z,46.70
2018-06-19T01:04:32.156Z,46.60
2018-06-19T01:07:01.228Z,46.60
2018-06-19T01:09:30.623Z,46.60
2018-06-19T01:11:59.743Z,47.20
2018-06-19T01:14:28.964Z,46.60
2018-06-19T01:16:58.114Z,46.60
2018-06-19T01:19:27.263Z,46.60
2018-06-19T01:21:56.381Z,46.50
2018-06-19T01:24:26.042Z,46.50
2018-06-19T01:26:55.276Z,46.50
2018-06-19T01:29:24.337Z,46.50
2018-06-19T01:31:53.664Z,46.50
2018-06-19T01:34:22.827Z,46.40
2018-06-19T01:36:52.027Z,46.40
2018-06-19T01:39:21.098Z,46.50
2018-06-19T01:41:50.279Z,46.40
2018-06-19T01:44:19.614Z,46.40
2018-06-19T01:46:48.815Z,46.40
2018-06-19T01:49:17.986Z,46.40
2018-06-19T01:51:47.267Z,46.30
2018-06-19T01:54:16.402Z,46.30
2018-06-19T01:56:45.548Z,46.30
2018-06-19T01:59:14.849Z,46.30
2018-06-19T02:01:44.142Z,46.30
2018-06-19T02:04:13.281Z,46.30
2018-06-19T02:06:42.503Z,46.30
2018-06-19T02:09:11.595Z,46.30
2018-06-19T02:11:40.823Z,46.30
2018-06-19T02:14:10.090Z,46.30
2018-06-19T02:16:39.201Z,46.30
2018-06-19T02:19:08.520Z,46.30
2018-06-19T02:21:37.654Z,46.20
2018-06-19T02:24:06.885Z,46.20
2018-06-19T02:26:36.049Z,46.20
2018-06-19T02:29:05.120Z,46.20
2018-06-19T02:31:34.320Z,46.20
2018-06-19T02:34:03.456Z,46.20
2018-06-19T02:36:32.545Z,46.20
2018-06-19T02:39:01.645Z,46.20
2018-06-19T02:41:30.898Z,46.20
2018-06-19T02:44:00.050Z,46.10
2018-06-19T02:46:29.207Z,46.10
2018-06-19T02:48:58.540Z,46.10
2018-06-19T02:51:28.050Z,46.10
2018-06-19T02:53:58.009Z,46.10
2018-06-19T02:56:27.178Z,46.10
2018-06-19T02:58:56.841Z,46.10
2018-06-19T03:01:25.953Z,46.10
2018-06-19T03:03:55.028Z,46.10
2018-06-19T03:06:24.230Z,46.10
2018-06-19T03:08:53.337Z,46.00
2018-06-19T03:11:22.482Z,46.00
2018-06-19T03:13:51.638Z,46.00
2018-06-19T03:16:20.785Z,46.00
2018-06-19T03:18:49.926Z,46.00
2018-06-19T03:21:25.520Z,45.90
2018-06-19T03:23:54.630Z,45.90
2018-06-19T03:26:23.788Z,45.90
2018-06-19T03:28:53.167Z,45.90
2018-06-19T03:31:22.430Z,45.90
2018-06-19T03:33:52.891Z,45.80
2018-06-19T03:36:21.955Z,45.90
2018-06-19T03:38:51.164Z,45.90
2018-06-19T03:41:20.347Z,45.90
2018-06-19T03:43:49.418Z,45.90
2018-06-19T03:46:18.568Z,45.90
2018-06-19T03:48:47.759Z,45.80
2018-06-19T03:51:16.835Z,45.80
2018-06-19T03:53:45.850Z,45.80
2018-06-19T03:56:15.011Z,45.80
2018-06-19T03:58:44.267Z,45.80
2018-06-19T04:01:13.369Z,45.80
2018-06-19T04:03:42.550Z,45.70
2018-06-19T04:06:11.590Z,45.70
2018-06-19T04:08:40.831Z,45.70
2018-06-19T04:11:09.986Z,45.70
2018-06-19T04:13:39.017Z,45.60
2018-06-19T04:16:08.164Z,45.70
2018-06-19T04:18:37.269Z,45.60
2018-06-19T04:21:06.467Z,45.60
2018-06-19T04:23:35.539Z,45.60
2018-06-19T04:26:04.662Z,45.60
2018-06-19T04:28:33.852Z,45.60
2018-06-19T04:31:02.968Z,45.60
2018-06-19T04:33:32.049Z,45.60
2018-06-19T04:36:01.141Z,45.60
2018-06-19T04:38:30.347Z,45.50
2018-06-19T04:40:59.547Z,45.50
2018-06-19T04:43:29.123Z,45.50
2018-06-19T04:45:58.246Z,45.50
2018-06-19T04:48:27.447Z,45.50
2018-06-19T04:50:56.653Z,45.40
2018-06-19T04:53:25.824Z,45.40
2018-06-19T04:55:55.012Z,45.40
2018-06-19T04:58:24.181Z,45.40
2018-06-19T05:00:53.408Z,45.30
2018-06-19T05:03:22.600Z,45.30
2018-06-19T05:05:51.789Z,45.30
2018-06-19T05:08:20.972Z,45.30
2018-06-19T05:10:50.323Z,45.20
2018-06-19T05:13:19.543Z,45.20
2018-06-19T05:15:48.683Z,45.10
2018-06-19T05:18:17.845Z,45.00
2018-06-19T05:20:47.076Z,45.00
2018-06-19T05:23:16.389Z,44.90
2018-06-19T05:25:45.463Z,44.80
2018-06-19T05:28:14.583Z,44.70
2018-06-19T05:30:43.739Z,44.70
2018-06-19T05:33:12.927Z,44.70
2018-06-19T05:35:42.218Z,44.70
2018-06-19T05:38:11.492Z,44.60
2018-06-19T05:40:40.606Z,44.60
2018-06-19T05:43:09.928Z,44.70
2018-06-19T05:45:39.188Z,44.60
2018-06-19T05:48:08.466Z,44.60
2018-06-19T05:50:37.721Z,44.50
2018-06-19T05:53:07.033Z,44.60
2018-06-19T05:55:38.150Z,48.10
2018-06-19T05:58:07.591Z,52.40
2018-06-19T06:00:37.289Z,55.00
2018-06-19T06:03:07.752Z,56.80
2018-06-19T06:05:37.121Z,58.50
2018-06-19T06:08:06.419Z,58.90
2018-06-19T06:10:37.082Z,59.20
2018-06-19T06:13:06.558Z,59.30
2018-06-19T06:15:35.730Z,58.30
2018-06-19T06:18:05.785Z,58.00
2018-06-19T06:20:35.521Z,57.80
2018-06-19T06:23:04.819Z,58.20
2018-06-19T06:25:34.119Z,57.80
2018-06-19T06:28:03.453Z,58.40
2018-06-19T06:30:32.842Z,58.80
2018-06-19T06:33:02.173Z,58.70
2018-06-19T06:35:31.305Z,58.20
2018-06-19T06:38:00.588Z,58.70
2018-06-19T06:40:29.839Z,58.80
2018-06-19T06:42:59.020Z,58.80
2018-06-19T06:45:28.267Z,59.10
2018-06-19T06:47:57.394Z,58.60
2018-06-19T06:50:26.829Z,58.80
2018-06-19T06:52:56.048Z,58.50
2018-06-19T06:55:25.221Z,58.50
2018-06-19T06:57:54.551Z,58.50
2018-06-19T07:00:23.840Z,59.30
2018-06-19T07:02:53.099Z,60.20
2018-06-19T07:05:22.520Z,59.50
2018-06-19T07:07:51.891Z,60.30
2018-06-19T07:10:21.030Z,60.70
2018-06-19T07:12:50.268Z,59.50
2018-06-19T07:15:19.943Z,59.50
2018-06-19T07:17:49.254Z,59.50
2018-06-19T07:20:18.846Z,60.00
2018-06-19T07:22:48.177Z,59.50
2018-06-19T07:25:17.458Z,59.40
2018-06-19T07:27:46.743Z,59.80
2018-06-19T07:30:15.955Z,59.80
2018-06-19T07:32:45.398Z,60.00
2018-06-19T07:35:14.758Z,59.20
2018-06-19T07:37:44.259Z,59.30
2018-06-19T07:40:13.496Z,59.70
2018-06-19T07:42:42.767Z,59.40
2018-06-19T07:45:12.058Z,59.70
2018-06-19T07:47:41.361Z,60.10
2018-06-19T07:50:11.289Z,60.60
2018-06-19T07:52:40.482Z,60.40
2018-06-19T07:55:09.788Z,61.30
2018-06-19T07:57:38.978Z,61.00
2018-06-19T08:00:08.077Z,61.90
2018-06-19T08:02:37.259Z,61.50
2018-06-19T08:05:06.426Z,59.80
2018-06-19T08:07:35.708Z,59.30
2018-06-19T08:10:04.875Z,58.00
2018-06-19T08:12:33.974Z,57.80
2018-06-19T08:15:03.201Z,58.00
2018-06-19T08:17:32.438Z,58.80
2018-06-19T08:20:01.667Z,58.60
2018-06-19T08:22:30.828Z,58.50
2018-06-19T08:25:00.002Z,58.30
2018-06-19T08:27:29.314Z,58.90
2018-06-19T08:29:58.696Z,58.70
2018-06-19T08:32:27.911Z,59.00
2018-06-19T08:34:57.143Z,59.20
2018-06-19T08:37:27.068Z,59.00
2018-06-19T08:39:56.371Z,58.90
2018-06-19T08:42:26.261Z,59.50
2018-06-19T08:44:55.410Z,60.00
2018-06-19T08:47:24.500Z,61.10
2018-06-19T08:49:53.868Z,61.00
2018-06-19T08:52:23.026Z,61.10
2018-06-19T08:54:52.539Z,61.50
2018-06-19T08:57:21.700Z,61.90
2018-06-19T08:59:50.959Z,61.80
2018-06-19T09:02:20.201Z,61.70
2018-06-19T09:04:49.530Z,61.50
2018-06-19T09:07:18.790Z,61.80
2018-06-19T09:09:48.107Z,60.20
2018-06-19T09:12:17.187Z,59.70
2018-06-19T09:14:46.426Z,59.10
2018-06-19T09:17:15.721Z,59.00
2018-06-19T09:19:44.948Z,59.20
2018-06-19T09:22:14.212Z,59.70
2018-06-19T09:24:43.339Z,59.20
2018-06-19T09:27:12.582Z,59.00
2018-06-19T09:29:41.910Z,58.60
2018-06-19T09:32:11.148Z,58.40
2018-06-19T09:34:40.506Z,58.40
2018-06-19T09:37:09.769Z,58.10
2018-06-19T09:39:39.056Z,58.20
2018-06-19T09:42:08.821Z,58.10
2018-06-19T09:44:38.139Z,58.20
2018-06-19T09:47:07.400Z,58.20
2018-06-19T09:49:36.640Z,58.00
2018-06-19T09:52:05.920Z,58.20
2018-06-19T09:54:35.354Z,58.50
2018-06-19T09:57:04.946Z,58.20
2018-06-19T09:59:34.156Z,58.20
2018-06-19T10:02:03.421Z,58.60
2018-06-19T10:04:32.952Z,57.80
2018-06-19T10:07:02.232Z,57.70
2018-06-19T10:09:31.587Z,57.80
2018-06-19T10:12:01.049Z,57.70
2018-06-19T10:14:30.271Z,57.60
2018-06-19T10:16:59.664Z,57.30
2018-06-19T10:19:28.882Z,57.40
2018-06-19T10:21:58.218Z,57.50
2018-06-19T10:24:27.469Z,57.20
2018-06-19T10:26:56.956Z,57.20
2018-06-19T10:29:26.143Z,56.60
2018-06-19T10:31:55.380Z,56.80
2018-06-19T10:34:24.600Z,56.80
2018-06-19T10:36:53.955Z,57.20
2018-06-19T10:39:23.164Z,57.20
2018-06-19T10:41:52.631Z,57.20
2018-06-19T10:44:21.906Z,57.30
2018-06-19T10:46:51.244Z,57.30
2018-06-19T10:49:20.595Z,57.20
2018-06-19T10:51:49.839Z,57.20
2018-06-19T10:54:18.994Z,57.00
2018-06-19T10:56:48.286Z,56.90
2018-06-19T10:59:17.559Z,56.60
2018-06-19T11:01:46.848Z,57.20
2018-06-19T11:04:16.202Z,57.70
2018-06-19T11:06:46.731Z,57.80
2018-06-19T11:09:15.867Z,56.90
2018-06-19T11:11:45.043Z,56.50
2018-06-19T11:14:14.539Z,55.80
2018-06-19T11:16:43.738Z,55.50
2018-06-19T11:19:12.937Z,55.70
2018-06-19T11:21:42.137Z,55.30
2018-06-19T11:24:11.322Z,55.50
2018-06-19T11:26:40.568Z,56.70
2018-06-19T11:29:09.859Z,54.90
2018-06-19T11:31:39.048Z,54.90
2018-06-19T11:34:08.263Z,55.10
2018-06-19T11:36:37.472Z,55.10
2018-06-19T11:39:10.770Z,54.30
2018-06-19T11:41:39.875Z,53.80
2018-06-19T11:44:09.181Z,53.90
2018-06-19T11:46:38.650Z,53.90
2018-06-19T11:49:07.802Z,54.10
2018-06-19T11:51:36.920Z,54.00
2018-06-19T11:54:06.235Z,53.10
2018-06-19T11:56:35.440Z,53.00
2018-06-19T11:59:04.674Z,53.80
2018-06-19T12:01:33.977Z,53.80
2018-06-19T12:04:03.161Z,53.20
2018-06-19T12:06:32.347Z,53.80
2018-06-19T12:09:01.619Z,53.10
2018-06-19T12:11:31.993Z,53.50
2018-06-19T12:14:01.402Z,53.60
2018-06-19T12:16:30.596Z,52.00
2018-06-19T12:18:59.818Z,51.90
2018-06-19T12:21:29.229Z,51.50
2018-06-19T12:23:58.440Z,51.60
2018-06-19T12:26:27.561Z,51.30
2018-06-19T12:28:56.922Z,51.30
2018-06-19T12:31:26.239Z,50.90
2018-06-19T12:33:55.313Z,50.90
2018-06-19T12:36:24.597Z,50.70
2018-06-19T12:38:53.782Z,51.00
2018-06-19T12:41:23.302Z,52.20
2018-06-19T12:43:52.469Z,50.30
2018-06-19T12:46:21.597Z,49.70
2018-06-19T12:48:50.932Z,49.30
2018-06-19T12:51:28.920Z,49.70
2018-06-19T12:54:06.967Z,50.10
2018-06-19T12:56:36.463Z,49.90
2018-06-19T12:59:05.686Z,48.30
2018-06-19T13:01:34.986Z,49.50
2018-06-19T13:04:12.960Z,48.60
2018-06-19T13:06:42.161Z,48.60
2018-06-19T13:09:11.511Z,48.60
2018-06-19T13:11:40.766Z,48.20
2018-06-19T13:14:18.675Z,48.50
2018-06-19T13:16:56.520Z,48.30
2018-06-19T13:19:34.391Z,48.80
2018-06-19T13:22:03.694Z,48.50
2018-06-19T13:24:32.942Z,48.60
2018-06-19T13:27:02.255Z,48.80
2018-06-19T13:29:41.934Z,49.50
2018-06-19T13:32:11.148Z,50.20
2018-06-19T13:34:40.410Z,49.80
2018-06-19T13:37:09.577Z,49.20
2018-06-19T13:39:39.761Z,48.00
2018-06-19T13:42:19.064Z,48.00
2018-06-19T13:44:56.354Z,48.00
2018-06-19T13:47:25.541Z,47.50
2018-06-19T13:49:54.679Z,47.70
2018-06-19T13:52:24.412Z,47.80
2018-06-19T13:54:53.755Z,48.00
2018-06-19T13:57:36.740Z,48.20
2018-06-19T14:00:09.231Z,48.70
2018-06-19T14:02:38.604Z,48.80
2018-06-19T14:05:08.553Z,47.00
2018-06-19T14:07:45.689Z,46.80
2018-06-19T14:10:23.586Z,48.70
2018-06-19T14:12:56.510Z,47.90
2018-06-19T14:15:25.900Z,47.40
2018-06-19T14:18:20.861Z,47.30
2018-06-19T14:20:54.799Z,47.10
2018-06-19T14:23:30.337Z,47.00
2018-06-19T14:26:01.483Z,47.40
2018-06-19T14:28:56.831Z,47.70
2018-06-19T14:32:02.175Z,47.40
2018-06-19T15:05:47.388Z,46.90
2018-06-19T15:08:17.040Z,46.60
2018-06-19T15:10:46.610Z,46.70
2018-06-19T15:13:16.090Z,46.30
2018-06-19T15:15:45.291Z,46.10
2018-06-19T15:18:14.640Z,45.70
2018-06-19T15:20:44.030Z,46.00
2018-06-19T15:23:13.521Z,45.90
2018-06-19T15:25:42.873Z,45.70
2018-06-19T15:28:12.137Z,45.50
2018-06-19T15:30:41.612Z,45.30
2018-06-19T15:33:10.680Z,45.20
2018-06-19T15:35:39.913Z,45.00
2018-06-19T15:38:09.418Z,44.80
2018-06-19T15:40:38.672Z,44.80
2018-06-19T15:43:08.042Z,44.40
2018-06-19T15:45:37.539Z,44.50
2018-06-19T15:48:06.856Z,44.30
2018-06-19T15:50:36.073Z,44.40
2018-06-19T15:53:05.335Z,44.30
2018-06-19T15:55:34.845Z,44.10
2018-06-19T15:58:04.006Z,43.80
2018-06-19T16:00:33.084Z,43.90
2018-06-19T16:03:02.258Z,44.00
2018-06-19T16:05:31.487Z,44.10
2018-06-19T16:08:04.978Z,43.70
2018-06-19T16:10:34.128Z,43.80
2018-06-19T16:13:03.765Z,43.40
2018-06-19T16:15:33.240Z,43.50
2018-06-19T16:18:02.469Z,43.60
2018-06-19T16:20:31.766Z,43.50
2018-06-19T16:23:00.901Z,43.30
2018-06-19T16:25:30.440Z,43.20
2018-06-19T16:27:59.777Z,43.20
2018-06-19T16:30:29.085Z,43.20
2018-06-19T16:32:58.433Z,42.90
2018-06-19T16:35:27.653Z,42.80
2018-06-19T16:37:56.778Z,42.80
2018-06-19T16:40:25.887Z,43.00
2018-06-19T16:42:55.843Z,43.30
2018-06-19T16:45:25.193Z,43.80
2018-06-19T16:47:55.920Z,43.20
2018-06-19T16:50:25.127Z,43.70
2018-06-19T16:52:54.354Z,43.60
2018-06-19T16:55:23.616Z,43.00
2018-06-19T16:57:52.791Z,43.40
2018-06-19T17:00:21.950Z,43.20
2018-06-19T17:02:51.115Z,43.60
2018-06-19T17:05:20.427Z,43.30
2018-06-19T17:07:49.625Z,43.10
2018-06-19T17:10:19.784Z,43.20
2018-06-19T17:12:49.077Z,43.30
2018-06-19T17:15:18.301Z,43.20
2018-06-19T17:17:47.604Z,43.10
2018-06-19T17:20:16.812Z,43.00
2018-06-19T17:22:45.991Z,43.20
2018-06-19T17:25:15.078Z,43.20
2018-06-19T17:27:44.222Z,43.20
2018-06-19T17:30:13.531Z,43.10
2018-06-19T17:32:42.783Z,44.00
2018-06-19T17:35:11.855Z,43.10
2018-06-19T17:37:40.997Z,43.60
2018-06-19T17:40:10.078Z,43.60
2018-06-19T17:42:39.218Z,43.80
2018-06-19T17:45:08.369Z,43.60
2018-06-19T17:47:37.525Z,43.50
2018-06-19T17:50:06.751Z,43.50
2018-06-19T17:52:35.945Z,43.50
2018-06-19T17:55:05.173Z,43.40
2018-06-19T17:57:34.368Z,43.70
2018-06-19T18:00:03.513Z,43.70
2018-06-19T18:02:33.046Z,43.60
2018-06-19T18:05:02.277Z,43.70
2018-06-19T18:07:31.543Z,44.40
2018-06-19T18:10:00.767Z,43.60
2018-06-19T18:12:30.039Z,43.70
2018-06-19T18:14:59.269Z,43.60
2018-06-19T18:17:28.499Z,43.70
2018-06-19T18:19:57.663Z,43.70
2018-06-19T18:22:26.823Z,43.50
2018-06-19T18:24:55.922Z,43.60
2018-06-19T18:27:25.158Z,43.80
2018-06-19T18:29:54.246Z,43.70
2018-06-19T18:32:24.760Z,43.70
2018-06-19T18:34:53.889Z,43.70
2018-06-19T18:37:23.054Z,43.70
2018-06-19T18:39:52.307Z,43.70
2018-06-19T18:42:21.558Z,43.90
2018-06-19T18:44:50.757Z,43.80
2018-06-19T18:47:19.862Z,43.80
2018-06-19T18:49:49.080Z,44.00
2018-06-19T18:52:18.207Z,43.90
2018-06-19T18:54:47.802Z,44.10
2018-06-19T18:57:17.174Z,44.10
2018-06-19T18:59:46.414Z,44.10
2018-06-19T19:02:15.760Z,44.10
2018-06-19T19:04:44.930Z,44.10
2018-06-19T19:07:14.187Z,44.20
2018-06-19T19:09:47.613Z,44.30
2018-06-19T19:12:16.727Z,44.30
2018-06-19T19:14:49.956Z,44.30
2018-06-19T19:17:23.686Z,44.20
2018-06-19T19:19:53.213Z,44.20
2018-06-19T19:22:22.321Z,44.30
2018-06-19T19:24:51.517Z,44.30
2018-06-19T19:27:24.973Z,44.30
2018-06-19T19:29:54.129Z,44.40
2018-06-19T19:32:23.263Z,44.30
2018-06-19T19:34:52.657Z,44.40
2018-06-19T19:37:26.659Z,44.40
2018-06-19T19:39:56.073Z,44.50
2018-06-19T19:42:25.243Z,44.50
2018-06-19T19:44:54.365Z,44.80
2018-06-19T19:47:27.617Z,44.50
2018-06-19T19:49:57.079Z,44.60
2018-06-19T19:52:26.111Z,44.60
2018-06-19T19:54:55.149Z,44.50
2018-06-19T19:57:28.316Z,44.60
2018-06-19T19:59:57.740Z,44.60
2018-06-19T20:02:26.935Z,44.60
2018-06-19T20:04:56.120Z,44.60
2018-06-19T20:07:25.345Z,44.60
2018-06-19T20:09:54.717Z,44.70
2018-06-19T20:12:23.809Z,44.80
2018-06-19T20:14:53.168Z,44.80
2018-06-19T20:17:22.224Z,44.80
2018-06-19T20:19:51.298Z,44.90
2018-06-19T20:22:20.390Z,44.80
2018-06-19T20:24:50.729Z,44.80
2018-06-19T20:27:19.915Z,44.80
2018-06-19T20:29:49.280Z,44.70
2018-06-19T20:32:18.638Z,44.80
2018-06-19T20:34:47.844Z,44.80
2018-06-19T20:37:16.961Z,44.80
2018-06-19T20:39:47.106Z,44.90
2018-06-19T20:42:16.350Z,44.80
2018-06-19T20:44:45.614Z,44.90
2018-06-19T20:47:14.817Z,44.80
2018-06-19T20:49:43.853Z,44.90
2018-06-19T20:52:12.824Z,44.90
2018-06-19T20:54:42.085Z,44.90
2018-06-19T20:57:11.228Z,45.00
2018-06-19T20:59:40.347Z,44.90
2018-06-19T21:02:10.543Z,45.00
2018-06-19T21:04:39.862Z,45.00
2018-06-19T21:07:09.172Z,45.10
2018-06-19T21:09:39.256Z,45.00
2018-06-19T21:12:09.121Z,45.10
2018-06-19T21:14:38.315Z,45.10
2018-06-19T21:17:07.598Z,45.10
2018-06-19T21:19:36.912Z,45.10
2018-06-19T21:22:06.116Z,45.10
2018-06-19T21:24:35.274Z,45.10
2018-06-19T21:27:04.570Z,45.10
2018-06-19T21:29:33.871Z,45.10
2018-06-19T21:32:03.089Z,45.10
2018-06-19T21:34:32.287Z,45.20
2018-06-19T21:37:01.475Z,45.20
2018-06-19T21:39:30.668Z,45.20
2018-06-19T21:42:00.077Z,45.20
2018-06-19T21:44:29.057Z,45.30
2018-06-19T21:46:58.338Z,45.30
2018-06-19T21:49:27.563Z,45.30
2018-06-19T21:51:56.974Z,45.30
2018-06-19T21:54:26.160Z,45.30
2018-06-19T21:56:55.418Z,45.30
2018-06-19T21:59:24.579Z,45.30
2018-06-19T22:01:53.801Z,45.30
2018-06-19T22:04:22.957Z,45.30
2018-06-19T22:06:52.183Z,45.30
2018-06-19T22:09:21.333Z,45.30
2018-06-19T22:11:50.575Z,45.20
2018-06-19T22:14:19.702Z,45.30
2018-06-19T22:16:49.077Z,45.30
2018-06-19T22:19:18.229Z,45.20
2018-06-19T22:21:47.457Z,45.30
2018-06-19T22:24:16.708Z,45.30
2018-06-19T22:26:45.976Z,45.30
2018-06-19T22:29:16.020Z,45.30
2018-06-19T22:31:45.106Z,45.30
2018-06-19T22:34:14.319Z,45.30
2018-06-19T22:36:43.621Z,45.30
2018-06-19T22:39:12.619Z,45.30
2018-06-19T22:41:41.706Z,45.30
2018-06-19T22:44:10.923Z,45.30
2018-06-19T22:46:40.216Z,45.40
2018-06-19T22:49:09.487Z,45.30
2018-06-19T22:51:38.569Z,45.30
2018-06-19T22:54:07.613Z,45.30
2018-06-19T22:56:36.741Z,45.40
2018-06-19T22:59:05.776Z,45.40
2018-06-19T23:01:35.081Z,45.40
2018-06-19T23:04:04.354Z,45.40
2018-06-19T23:06:33.451Z,45.30
2018-06-19T23:09:02.621Z,45.40
2018-06-19T23:11:31.814Z,45.40
2018-06-19T23:14:02.194Z,46.00
2018-06-19T23:16:31.303Z,45.40
2018-06-19T23:19:00.352Z,45.40
2018-06-19T23:21:29.573Z,45.40
2018-06-19T23:23:58.724Z,45.40
2018-06-19T23:26:27.783Z,45.40
2018-06-19T23:28:56.996Z,45.40
2018-06-19T23:31:26.303Z,46.00
2018-06-19T23:33:55.791Z,45.40
2018-06-19T23:36:24.909Z,45.40
2018-06-19T23:38:54.035Z,45.40
2018-06-19T23:41:23.166Z,45.40
2018-06-19T23:43:52.545Z,45.40
2018-06-19T23:46:21.708Z,45.40
2018-06-19T23:48:51.273Z,45.40
2018-06-19T23:51:20.477Z,45.40
2018-06-19T23:53:49.614Z,45.50
2018-06-19T23:56:18.855Z,45.30
2018-06-19T23:58:47.974Z,45.40
